Latest Weather Observations for Gannett Cay

IDQ60801

Issued at 8:02 pm EST Friday 19 December 2014 (issued every 30 minutes, with the page automatically refreshed every 10 minutes)

About weather observations | Map of weather stations | Latest weather observations for QLD | Other Formats
Station Details ID: 200831 Name: GANNET CAY Lat: -21.98 Lon: 152.47 Height: 2.3 m
Data from the previous 72 hours. | See also: Recent months for locations in Queensland
Date/Time
EST
Temp
°C
App
Temp
°C
Dew
Point
Rel
Hum
%
Delta-T
°C
Wind Press
QNH
hPa
Press
MSL
hPa
Rain
since 9 am
mm
Dir
 
Spd
km/h
Gust
km/h
Spd
kts
Gust
kts
19/08:00pm 26.6 - - - - SSW 7 9 4 5 1011.9 - -
19/07:30pm 26.6 - - - - E 6 9 3 5 1011.5 - -
19/07:29pm 26.6 - - - - ENE 6 7 3 4 1011.5 1011.6 -
19/07:00pm 26.7 - - - - SSE 6 6 3 3 1011.3 - -
19/06:30pm 26.7 - - - - W 6 7 3 4 1011.0 - -
19/06:29pm 26.7 - - - - W 6 - 3 - - 1011.1 -
19/06:00pm 26.8 - - - - WNW 7 9 4 5 1010.9 - -
19/05:30pm 26.7 - - - - N 7 9 4 5 1010.8 - -
19/05:29pm 26.8 - - - - N 7 - 4 - - 1010.9 -
19/05:00pm 26.9 - - - - N 6 7 3 4 1010.4 - -
19/04:30pm 26.8 - - - - NNW 7 9 4 5 1010.3 - -
19/04:29pm 26.8 - - - - NNW 7 - 4 - - 1010.4 -
19/04:00pm 27.0 - - - - NW 9 11 5 6 1010.5 - -
19/03:30pm 26.9 - - - - NW 9 13 5 7 1010.3 - -
19/03:29pm 26.9 - - - - NW 9 - 5 - - 1010.4 -
19/03:00pm 26.9 - - - - NW 11 11 6 6 1010.5 - -
19/02:30pm 27.2 - - - - WNW 9 11 5 6 1010.8 - -
19/02:29pm 27.2 - - - - NW 7 - 4 - - 1010.9 -
19/02:00pm 27.3 - - - - WNW 9 11 5 6 1011.0 - -
19/01:30pm 27.0 - - - - NW 9 11 5 6 1011.3 - -
19/01:29pm 27.1 - - - - NW 9 - 5 - - 1011.4 -
19/01:00pm 26.9 - - - - NNW 9 11 5 6 1011.5 - -
19/12:30pm 26.7 - - - - N 11 13 6 7 1011.6 - -
19/12:29pm 26.7 - - - - N 11 - 6 - - 1011.7 -
19/12:00pm 26.7 - - - - N 11 11 6 6 1011.7 - -
19/11:30am 26.6 - - - - N 11 15 6 8 1011.8 - -
19/11:29am 26.6 - - - - N 11 - 6 - - 1011.9 -
19/11:00am 26.5 - - - - N 11 15 6 8 1011.7 - -
19/10:30am 26.7 - - - - NNE 11 13 6 7 1011.9 - -
19/10:29am 26.7 - - - - NNE 11 - 6 - - 1012.0 -
19/10:00am 26.6 - - - - NNE 15 19 8 10 1011.9 - -
19/09:30am 26.5 - - - - NNE 17 20 9 11 1011.9 - -
19/09:29am 26.4 - - - - NNE 17 - 9 - - 1012.0 -
19/09:00am 26.4 - - - - NNE 22 26 12 14 1011.6 - -
19/08:30am 26.3 - - - - NE 26 30 14 16 1011.3 - -
19/08:29am 26.4 - - - - NE 26 - 14 - - 1011.4 -
19/08:00am 26.4 - - - - NE 22 24 12 13 1011.4 - -
19/07:30am 26.5 - - - - NE 20 22 11 12 1011.4 - -
19/07:29am 26.3 - - - - NE 20 - 11 - - 1011.5 -
19/07:00am 26.5 - - - - NE 15 20 8 11 1011.5 - -
19/06:30am 26.3 - - - - NNE 15 17 8 9 1011.7 - -
19/06:29am 26.4 - - - - NNE 15 - 8 - - 1011.8 -
19/06:00am 26.3 - - - - NNE 11 13 6 7 1011.8 - -
19/05:30am 26.2 - - - - N 9 11 5 6 1012.0 - -
19/05:29am 26.2 - - - - N 9 - 5 - - 1012.1 -
19/05:00am 26.1 - - - - N 9 13 5 7 1011.6 - -
19/04:30am 26.2 - - - - N 13 15 7 8 1011.4 - -
19/04:29am 26.2 - - - - N 13 - 7 - - 1011.4 -
19/04:00am 26.2 - - - - N 13 15 7 8 1011.3 - -
19/03:30am 26.2 - - - - NW 11 13 6 7 1011.4 - -
19/03:29am 26.3 - - - - NW 11 - 6 - - 1011.6 -
19/03:00am 26.3 - - - - NW 13 15 7 8 1011.7 - -
19/02:30am 26.1 - - - - N 20 26 11 14 1011.1 - -
19/02:29am 26.2 - - - - N 20 - 11 - - 1011.1 -
19/02:00am 26.2 - - - - N 30 32 16 17 1010.3 - -
19/01:30am 26.2 - - - - N 26 30 14 16 1010.8 - -
19/01:29am 26.1 - - - - N 26 - 14 - - 1010.9 -
19/01:00am 26.3 - - - - N 24 28 13 15 1011.1 - -
19/12:30am 26.3 - - - - N 20 24 11 13 1011.4 - -
19/12:29am 26.2 - - - - N 20 - 11 - - 1011.5 -
19/12:00am 26.3 - - - - N 20 24 11 13 1011.8 - -
 
Date/Time
EST
Temp
°C
App
Temp
°C
Dew
Point
Rel
Hum
%
Delta-T
°C
Wind Press
QNH
hPa
Press
MSL
hPa
Rain
since 9 am
mm
Dir
 
Spd
km/h
Gust
km/h
Spd
kts
Gust
kts
18/11:30pm 26.4 - - - - N 19 22 10 12 1012.2 - -
18/11:29pm 26.3 - - - - N 19 - 10 - - 1012.3 -
18/11:00pm 26.3 - - - - N 19 20 10 11 1012.3 - -
18/10:30pm 26.4 - - - - N 19 22 10 12 1012.3 - -
18/10:29pm 26.4 - - - - N 19 - 10 - - 1012.4 -
18/10:00pm 26.4 - - - - N 17 20 9 11 1012.5 - -
18/09:30pm 26.4 - - - - N 19 20 10 11 1012.1 - -
18/09:29pm 26.5 - - - - N 19 - 10 - - 1012.2 -
18/09:00pm 26.4 - - - - N 19 20 10 11 1011.7 - -
18/08:30pm 26.4 - - - - N 19 22 10 12 1011.7 - -
18/08:29pm 26.4 - - - - N 19 - 10 - - 1011.8 -
18/08:00pm 26.5 - - - - N 17 20 9 11 1011.6 - -
18/07:30pm 26.4 - - - - NNE 19 24 10 13 1011.3 - -
18/07:29pm 26.5 - - - - NNE 19 - 10 - - 1011.4 -
18/07:00pm 26.6 - - - - N 17 20 9 11 1011.0 - -
18/06:30pm 26.5 - - - - N 19 22 10 12 1010.8 - -
18/06:29pm 26.6 - - - - N 19 - 10 - - 1010.9 -
18/06:00pm 26.6 - - - - N 20 22 11 12 1010.3 - -
18/05:30pm 26.7 - - - - N 20 24 11 13 1009.7 - -
18/05:29pm 26.6 - - - - N 20 - 11 - - 1009.8 -
18/05:00pm 26.6 - - - - N 22 26 12 14 1009.3 - -
18/04:30pm 26.7 - - - - N 22 26 12 14 1008.9 - -
18/04:29pm 26.6 - - - - N 22 - 12 - - 1009.1 -
18/04:00pm 26.8 - - - - N 20 24 11 13 1009.1 - -
18/03:30pm 26.7 - - - - N 20 24 11 13 1009.6 - -
18/03:29pm 26.7 - - - - N 22 - 12 - - 1009.7 -
18/03:00pm 26.8 - - - - N 17 19 9 10 1009.9 - -
18/02:30pm 26.8 - - - - N 19 20 10 11 1010.5 - -
18/02:29pm 26.8 - - - - N 19 - 10 - - 1010.6 -
18/02:00pm 26.8 - - - - N 19 20 10 11 1011.0 - -
18/01:30pm 26.9 - - - - N 19 22 10 12 1011.2 - -
18/01:29pm 26.9 - - - - N 19 - 10 - - 1011.3 -
18/01:00pm 26.9 - - - - N 19 20 10 11 1011.6 - -
18/12:30pm 26.8 - - - - N 20 24 11 13 1011.8 - -
18/12:29pm 26.9 - - - - N 20 - 11 - - 1011.9 -
18/12:00pm 26.7 - - - - N 19 20 10 11 1012.1 - -
18/11:30am 26.7 - - - - N 19 22 10 12 1012.4 - -
18/11:29am 26.7 - - - - N 19 - 10 - - 1012.5 -
18/11:00am 26.7 - - - - N 20 22 11 12 1012.6 - -
18/10:30am 26.6 - - - - N 20 22 11 12 1012.6 - -
18/10:29am 26.6 - - - - N 20 - 11 - - 1012.7 -
18/10:00am 26.6 - - - - N 22 26 12 14 1012.6 - -
18/09:30am 26.5 - - - - N 22 26 12 14 1012.6 - -
18/09:29am 26.6 - - - - N 22 - 12 - - 1012.7 -
18/09:00am 26.5 - - - - NNE 22 26 12 14 1012.6 - -
18/08:30am 26.5 - - - - N 20 22 11 12 1012.6 - -
18/08:29am 26.5 - - - - N 20 - 11 - - 1012.7 -
18/08:00am 26.5 - - - - N 20 24 11 13 1012.6 - -
18/07:30am 26.4 - - - - N 22 24 12 13 1012.5 - -
18/07:29am 26.5 - - - - N 22 - 12 - - 1012.6 -
18/07:00am 26.5 - - - - N 22 26 12 14 1012.3 - -
18/06:30am 26.4 - - - - NNE 24 26 13 14 1012.0 - -
18/06:29am 26.4 - - - - NNE 24 - 13 - - 1012.1 -
18/06:00am 26.3 - - - - N 22 26 12 14 1011.8 - -
18/05:30am 26.3 - - - - N 20 24 11 13 1011.6 - -
18/05:29am 26.3 - - - - N 20 - 11 - - 1011.6 -
18/05:00am 26.4 - - - - N 28 33 15 18 1010.4 - -
18/04:30am 26.2 - - - - N 22 28 12 15 1010.6 - -
18/04:29am 26.2 - - - - N 22 - 12 - - 1010.7 -
18/04:00am 26.2 - - - - N 24 28 13 15 1010.2 - -
18/03:30am 26.3 - - - - N 24 28 13 15 1009.9 - -
18/03:29am 26.3 - - - - N 24 - 13 - - 1010.0 -
18/03:00am 26.2 - - - - N 22 26 12 14 1010.1 - -
18/02:30am 26.2 - - - - N 24 30 13 16 1009.9 - -
18/02:29am 26.3 - - - - N 24 - 13 - - 1010.0 -
18/02:00am 26.3 - - - - N 26 30 14 16 1009.6 - -
18/01:30am 26.3 - - - - N 28 33 15 18 1009.7 - -
18/01:29am 26.3 - - - - N 28 - 15 - - 1009.8 -
18/01:00am 26.3 - - - - N 24 28 13 15 1009.9 - -
18/12:30am 26.3 - - - - N 26 30 14 16 1009.9 - -
18/12:29am 26.4 - - - - N 24 - 13 - - 1010.0 -
18/12:00am 26.4 - - - - N 26 30 14 16 1010.0 - -
 
Date/Time
EST
Temp
°C
App
Temp
°C
Dew
Point
Rel
Hum
%
Delta-T
°C
Wind Press
QNH
hPa
Press
MSL
hPa
Rain
since 9 am
mm
Dir
 
Spd
km/h
Gust
km/h
Spd
kts
Gust
kts
17/11:30pm 26.5 - - - - N 24 28 13 15 1010.5 - -
17/11:29pm 26.4 - - - - N 24 - 13 - - 1010.6 -
17/11:00pm 26.4 - - - - N 26 28 14 15 1010.5 - -
17/10:30pm 26.4 - - - - N 24 26 13 14 1010.3 - -
17/10:29pm 26.5 - - - - N 24 - 13 - - 1010.4 -
17/10:00pm 26.4 - - - - N 26 28 14 15 1010.0 - -
17/09:30pm 26.4 - - - - N 28 30 15 16 1009.7 - -
17/09:29pm 26.4 - - - - NNW 26 - 14 - - 1009.8 -
17/09:00pm 26.5 - - - - N 24 26 13 14 1009.7 - -
17/08:30pm 26.6 - - - - NNW 22 26 12 14 1009.6 - -
17/08:29pm 26.6 - - - - NNW 22 - 12 - - 1009.7 -
17/08:00pm 26.6 - - - - NNW 24 26 13 14 1009.6 - -
17/07:30pm 26.7 - - - - NNW 22 26 12 14 1009.3 - -
17/07:29pm 26.6 - - - - NNW 22 - 12 - - 1009.5 -
17/07:00pm 26.6 - - - - NNW 24 28 13 15 1008.9 - -
17/06:30pm 26.6 - - - - NNW 24 26 13 14 1008.5 - -
17/06:29pm 26.6 - - - - N 24 - 13 - - 1008.7 -
17/06:00pm 26.6 - - - - NW 20 24 11 13 1008.0 - -
17/05:30pm 26.7 - - - - N 20 22 11 12 1007.8 - -
17/05:29pm 26.8 - - - - N 20 - 11 - - 1008.0 -
17/05:00pm 26.8 - - - - NNW 20 22 11 12 1007.6 - -
17/04:30pm 26.7 - - - - NNW 19 20 10 11 1007.6 - -
17/04:29pm 26.7 - - - - NNW 19 - 10 - - 1007.8 -
17/04:00pm 26.7 - - - - NNW 20 22 11 12 1007.5 - -
17/03:30pm 26.7 - - - - NW 20 24 11 13 1007.4 - -
17/03:29pm 26.7 - - - - NW 20 - 11 - - 1007.7 -
17/03:00pm 26.8 - - - - NW 20 22 11 12 1007.7 - -
17/02:30pm 26.7 - - - - NW 20 24 11 13 1008.0 - -
17/02:29pm 26.8 - - - - NW 20 - 11 - - 1008.2 -
17/02:00pm 26.7 - - - - NNW 22 26 12 14 1008.0 - -
17/01:30pm 26.7 - - - - NW 22 26 12 14 1008.2 - -
17/01:29pm 26.8 - - - - NW 22 - 12 - - 1008.4 -
17/01:00pm 26.6 - - - - NW 24 28 13 15 1008.3 - -
17/12:30pm 26.6 - - - - NW 26 28 14 15 1008.6 - -
17/12:29pm 26.6 - - - - NW 26 - 14 - - 1008.8 -
17/12:00pm 26.7 - - - - NW 26 28 14 15 1008.8 - -
17/11:30am 26.5 - - - - NW 26 30 14 16 1009.0 - -
17/11:29am 26.5 - - - - NW 26 - 14 - - 1009.2 -
17/11:00am 26.5 - - - - NNW 28 32 15 17 1009.1 - -
17/10:30am 26.6 - - - - NW 28 30 15 16 1009.7 - -
17/10:29am 26.6 - - - - NW 28 - 15 - - 1009.7 -
17/10:00am 26.5 - - - - NW 28 30 15 16 1009.7 - -
17/09:30am 26.5 - - - - NNW 26 30 14 16 1009.7 - -
17/09:29am 26.5 - - - - NNW 26 - 14 - - 1009.7 -
17/09:00am 26.4 - - - - NNW 26 30 14 16 1009.3 - -
17/08:30am 26.4 - - - - NNW 24 28 13 15 1009.6 - -
17/08:29am 26.4 - - - - NNW 24 - 13 - - 1009.7 -
17/08:00am 26.3 - - - - NNW 24 28 13 15 1009.5 - -
17/07:30am 26.3 - - - - NNW 24 28 13 15 1009.6 - -
17/07:29am 26.2 - - - - NNW 26 - 14 - - 1009.7 -
17/07:00am 26.3 - - - - NW 22 26 12 14 1009.5 - -
17/06:30am 26.2 - - - - NW 22 26 12 14 1009.3 - -
17/06:29am 26.1 - - - - NW 22 - 12 - - 1009.5 -
17/06:00am 26.1 - - - - NW 24 28 13 15 1009.1 - -
17/05:30am 26.1 - - - - NNW 26 30 14 16 1008.3 - -
17/05:29am 26.1 - - - - NNW 26 - 14 - - 1008.5 -
17/05:00am 26.0 - - - - NNW 24 30 13 16 1008.2 - -
17/04:30am 26.0 - - - - NW 24 30 13 16 1007.9 - -
17/04:29am 26.0 - - - - NW 24 - 13 - - 1008.1 -
17/04:00am 26.0 - - - - NNW 24 28 13 15 1007.4 - -
17/03:30am 25.9 - - - - NNW 26 30 14 16 1007.4 - -
17/03:29am 26.1 - - - - NNW 26 - 14 - - 1007.6 -
17/03:00am 25.9 - - - - NNW 28 32 15 17 1007.2 - -
17/02:30am 25.9 - - - - NNW 28 33 15 18 1007.4 - -
17/02:29am 25.9 - - - - NNW 28 - 15 - - 1007.6 -
17/02:00am 25.9 - - - - N 26 30 14 16 1007.5 - -
17/01:30am 25.6 - - - - NNW 26 30 14 16 1007.5 - -
17/01:29am 25.5 - - - - NNW 26 - 14 - - 1007.7 -
17/01:00am 25.6 - - - - NNW 24 28 13 15 1007.7 - -
17/12:30am 25.6 - - - - N 22 26 12 14 1007.9 - -
17/12:29am 25.5 - - - - N 22 - 12 - - 1008.1 -
17/12:00am 25.6 - - - - N 20 24 11 13 1008.2 - -
 
Date/Time
EST
Temp
°C
App
Temp
°C
Dew
Point
Rel
Hum
%
Delta-T
°C
Wind Press
QNH
hPa
Press
MSL
hPa
Rain
since 9 am
mm
Dir
 
Spd
km/h
Gust
km/h
Spd
kts
Gust
kts
16/11:30pm 25.7 - - - - NNW 20 26 11 14 1008.7 - -
16/11:29pm 25.8 - - - - NNW 22 - 12 - - 1008.9 -
16/11:00pm 25.8 - - - - NNW 24 26 13 14 1008.9 - -
16/10:30pm 25.9 - - - - NNW 24 28 13 15 1009.1 - -
16/10:29pm 25.9 - - - - NNW 24 - 13 - - 1009.3 -
16/10:00pm 25.8 - - - - NNW 24 28 13 15 1009.1 - -
16/09:30pm 25.8 - - - - NNW 24 30 13 16 1009.1 - -
16/09:29pm 25.8 - - - - NNW 24 - 13 - - 1009.3 -
16/09:00pm 25.7 - - - - N 22 26 12 14 1009.0 - -
16/08:30pm 25.8 - - - - N 22 24 12 13 1008.8 - -
16/08:29pm 25.8 - - - - N 22 - 12 - - 1009.0 -

Other Formats:

Comma delimited format used in spreadsheet applications
http://www.bom.gov.au/fwo/IDQ60801/IDQ60801.94379.axf

JavaScript Object Notation format (JSON) in row-major order
http://www.bom.gov.au/fwo/IDQ60801/IDQ60801.94379.json